KDVN/DVN METAR and TAF weather

Enter ICAO airport designator
Station Type Date Time Source
KDVN METAR 2019/10/21 02:52 UTC NOAA

KDVN 210252Z AUTO 11010KT 10SM CLR 14/08 A2984 RMK AO2 SLP103 T01440078 58005


Station Type Date Time Source
KDVN Decoded METAR 2019/10/21 02:52 UTC NOAA

DAVENPORT MUNICIPAL AIRPORT, IA, United States (KDVN) 41-37N 90-35W 228M
Oct 20, 2019 - 10:52 PM EDT / 2019.10.21 0252 UTC
Wind: from the ESE (110 degrees) at 12 MPH (10 KT):0
Visibility: 10 mile(s):0
Sky conditions: clear
Temperature: 57.9 F (14.4 C)
Dew Point: 46.0 F (7.8 C)
Relative Humidity: 64%
Pressure (altimeter): 29.84 in. Hg (1010 hPa)
Pressure tendency: 0.01 inches (0.5 hPa) lower than three hours ago
ob: KDVN 210252Z AUTO 11010KT 10SM CLR 14/08 A2984 RMK AO2 SLP103 T01440078 58005
cycle: 3

Station Type Date Time Source
KDVN TAF UTC NOAA

Error!

Example: see airport list